Time;durP1;ratioP1;P1;durP2;ratioP2;P2;SDS_P1;SDS_P2;PMS_P1;PMS_P2;Temp;Humidity;BMP_temperature;BMP_pressure;BME280_temperature;BME280_humidity;BME280_pressure;Samples;Min_cycle;Max_cycle;Signal;HPM_P1;HPM_P2
2023/04/04 00:00:50;;;;;;;0.80;0.55;;;;;;;17.28;41.08;102787.13;20741029;28;20073;-81
2023/04/04 00:10:58;;;;;;;1.23;0.80;;;;;;;17.21;41.11;102770.44;20757168;28;20046;-81
2023/04/04 00:21:00;;;;;;;0.82;0.63;;;;;;;17.31;41.09;102778.88;20748632;28;20102;-81
2023/04/04 00:31:02;;;;;;;0.93;0.68;;;;;;;17.30;41.22;102785.22;20738264;28;20042;-81
2023/04/04 00:41:05;;;;;;;1.17;0.60;;;;;;;17.26;41.15;102767.50;20758729;28;20048;-81
2023/04/04 00:51:07;;;;;;;1.52;0.90;;;;;;;17.29;41.30;102778.09;20734911;28;20088;-81
2023/04/04 01:01:12;;;;;;;1.30;0.70;;;;;;;17.16;41.36;102759.06;20736689;28;20038;-81
2023/04/04 01:11:15;;;;;;;1.93;0.60;;;;;;;17.24;41.23;102759.53;20751563;28;20394;-81
2023/04/04 01:21:20;;;;;;;0.65;0.50;;;;;;;17.14;41.26;102750.22;20757427;28;20486;-81
2023/04/04 01:31:38;;;;;;;1.00;0.80;;;;;;;17.27;41.42;102766.53;20753425;28;20049;-81
2023/04/04 01:41:41;;;;;;;0.50;0.50;;;;;;;17.23;41.18;102754.22;20751440;28;20488;-81
2023/04/04 01:51:43;;;;;;;1.48;1.00;;;;;;;17.22;41.11;102747.09;20751951;28;20046;-81
2023/04/04 02:01:45;;;;;;;1.02;0.63;;;;;;;17.25;41.26;102757.69;20757776;28;20038;-81
2023/04/04 02:11:47;;;;;;;1.88;0.70;;;;;;;17.24;41.13;102754.16;20753950;28;20144;-81
2023/04/04 02:21:52;;;;;;;1.30;0.68;;;;;;;17.17;41.14;102741.97;20747592;28;20126;-81
2023/04/04 02:31:54;;;;;;;0.63;0.60;;;;;;;17.21;41.03;102748.06;20747334;28;20402;-81
2023/04/04 02:41:56;;;;;;;0.77;0.63;;;;;;;17.23;40.89;102744.34;20762851;28;20512;-81
2023/04/04 02:51:58;;;;;;;0.68;0.60;;;;;;;17.24;41.23;102729.91;20762197;28;20358;-81
2023/04/04 03:02:05;;;;;;;1.20;0.60;;;;;;;17.25;40.97;102715.50;20746656;28;20045;-81
2023/04/04 03:12:07;;;;;;;0.73;0.70;;;;;;;17.27;41.08;102717.25;20735035;28;20129;-79
2023/04/04 03:22:09;;;;;;;1.17;0.57;;;;;;;17.37;41.21;102715.75;20726711;28;20060;-81
2023/04/04 03:32:11;;;;;;;0.52;0.52;;;;;;;17.40;41.17;102713.72;20724549;28;20038;-80
2023/04/04 03:42:13;;;;;;;0.95;0.55;;;;;;;17.47;40.96;102710.72;20728442;28;20506;-81
2023/04/04 03:52:15;;;;;;;1.48;0.75;;;;;;;17.52;40.92;102708.63;20706078;28;20049;-81
2023/04/04 04:02:17;;;;;;;0.80;0.52;;;;;;;17.56;40.67;102690.44;20725119;28;20540;-80
2023/04/04 04:12:19;;;;;;;0.63;0.63;;;;;;;17.28;40.72;102633.69;20726439;28;20053;-80
2023/04/04 04:22:21;;;;;;;0.75;0.50;;;;;;;17.61;40.68;102688.34;20740114;28;20053;-80
2023/04/04 04:32:25;;;;;;;0.82;0.60;;;;;;;17.66;40.38;102688.91;20752321;28;20045;-81
2023/04/04 04:42:28;;;;;;;1.30;0.73;;;;;;;17.74;40.44;102705.53;20735392;28;20548;-80
2023/04/04 04:52:35;;;;;;;0.82;0.50;;;;;;;17.80;40.42;102704.28;20754983;28;20111;-80
2023/04/04 05:02:37;;;;;;;0.65;0.63;;;;;;;17.86;40.27;102708.44;20733196;28;20050;-80
2023/04/04 05:12:44;;;;;;;0.70;0.63;;;;;;;17.89;40.15;102713.63;20725215;28;20053;-80
2023/04/04 05:22:52;;;;;;;1.05;0.80;;;;;;;17.81;40.04;102701.50;20722008;28;20103;-80
2023/04/04 05:33:05;;;;;;;0.70;0.60;;;;;;;17.94;40.10;102722.31;20725317;28;20054;-81
2023/04/04 05:43:08;;;;;;;0.90;0.70;;;;;;;17.97;39.93;102733.78;20721893;28;20141;-80
2023/04/04 05:53:21;;;;;;;0.82;0.60;;;;;;;18.00;39.92;102738.09;20707303;28;20057;-80
2023/04/04 06:03:27;;;;;;;0.50;0.50;;;;;;;17.94;39.91;102722.31;20721264;28;20046;-82
2023/04/04 06:13:31;;;;;;;0.65;0.60;;;;;;;18.08;40.01;102735.00;20745478;28;20058;-82
2023/04/04 06:23:38;;;;;;;1.85;0.88;;;;;;;18.11;40.03;102738.34;20739518;28;20054;-83
2023/04/04 06:33:40;;;;;;;0.80;0.60;;;;;;;18.14;40.14;102733.75;20734513;28;20065;-82
2023/04/04 06:43:42;;;;;;;1.33;0.70;;;;;;;18.19;40.22;102734.34;20734963;28;20490;-84
2023/04/04 06:53:44;;;;;;;0.50;0.50;;;;;;;18.22;40.36;102736.84;20739558;28;20136;-84
2023/04/04 07:03:46;;;;;;;0.70;0.70;;;;;;;18.26;40.22;102733.00;20714005;28;20042;-84
2023/04/04 07:13:48;;;;;;;0.88;0.80;;;;;;;18.29;40.57;102735.50;20747642;28;20050;-84
2023/04/04 07:23:50;;;;;;;1.13;0.70;;;;;;;18.32;40.67;102732.63;20738185;28;20057;-85
2023/04/04 07:33:55;;;;;;;0.95;0.70;;;;;;;18.33;40.63;102725.38;20710315;28;20057;-83
2023/04/04 07:43:57;;;;;;;0.98;0.70;;;;;;;18.33;40.68;102723.56;20735920;28;20053;-83
2023/04/04 07:53:58;;;;;;;1.50;0.63;;;;;;;18.34;40.71;102719.91;20727793;28;20054;-83
2023/04/04 08:04:00;;;;;;;0.90;0.60;;;;;;;18.36;40.52;102718.00;20745516;28;20133;-83
2023/04/04 08:14:02;;;;;;;2.03;0.57;;;;;;;18.06;40.59;102661.44;20740340;28;20061;-83
2023/04/04 08:24:05;;;;;;;1.25;0.50;;;;;;;18.33;40.17;102712.78;20742214;28;20096;-83
2023/04/04 08:34:07;;;;;;;0.73;0.60;;;;;;;18.39;40.08;102711.56;20739363;28;20080;-83
2023/04/04 08:44:16;;;;;;;0.60;0.50;;;;;;;18.39;39.90;102706.16;20722722;28;20394;-83
2023/04/04 08:54:19;;;;;;;1.45;0.70;;;;;;;18.26;39.68;102693.41;20729738;28;20394;-83
2023/04/04 09:04:21;;;;;;;0.70;0.65;;;;;;;18.33;39.73;102704.69;20738193;28;20060;-83
2023/04/04 09:14:24;;;;;;;1.27;0.80;;;;;;;18.32;39.63;102711.06;20720441;28;20050;-83
2023/04/04 09:24:38;;;;;;;0.50;0.50;;;;;;;18.25;39.45;102699.78;20723961;28;20049;-83
2023/04/04 09:34:40;;;;;;;1.02;0.50;;;;;;;18.28;39.05;102693.34;20733941;28;20136;-83
2023/04/04 09:44:43;;;;;;;1.02;0.65;;;;;;;18.24;39.19;102686.41;20748210;28;20125;-83
2023/04/04 09:54:54;;;;;;;0.47;0.45;;;;;;;18.22;39.07;102693.72;20737054;28;20064;-82
2023/04/04 10:04:57;;;;;;;0.45;0.40;;;;;;;18.21;39.01;102689.28;20768328;28;20124;-83
2023/04/04 10:15:07;;;;;;;0.85;0.52;;;;;;;17.91;38.93;102630.88;20747158;28;20058;-82
2023/04/04 10:25:09;;;;;;;0.82;0.60;;;;;;;18.17;38.80;102672.44;20735313;28;20053;-83
2023/04/04 10:35:11;;;;;;;0.65;0.50;;;;;;;18.15;38.50;102676.19;20743884;28;20065;-82
2023/04/04 10:45:14;;;;;;;1.10;0.65;;;;;;;18.05;38.58;102668.66;20733970;28;20053;-83
2023/04/04 10:55:23;;;;;;;1.10;0.60;;;;;;;18.07;38.62;102650.56;20745785;28;20442;-82
2023/04/04 11:05:25;;;;;;;1.13;0.90;;;;;;;18.10;38.29;102639.59;20707212;28;20050;-83
2023/04/04 11:15:44;;;;;;;0.90;0.50;;;;;;;17.98;38.32;102605.28;20727877;28;20467;-82
2023/04/04 11:25:50;;;;;;;0.70;0.63;;;;;;;18.09;38.26;102618.97;20742208;28;20137;-82
2023/04/04 11:35:52;;;;;;;0.90;0.60;;;;;;;18.08;38.26;102611.84;20742863;28;20111;-83
2023/04/04 11:46:05;;;;;;;0.40;0.40;;;;;;;18.04;38.08;102596.00;20743660;28;20054;-83
2023/04/04 11:56:07;;;;;;;0.73;0.50;;;;;;;18.07;38.19;102598.50;20755581;28;20056;-82
2023/04/04 12:06:15;;;;;;;0.93;0.50;;;;;;;18.01;37.89;102588.97;20752190;28;20574;-82
2023/04/04 12:16:18;;;;;;;2.25;0.60;;;;;;;17.88;37.83;102547.53;20741082;28;20042;-82
2023/04/04 12:26:20;;;;;;;0.60;0.55;;;;;;;18.04;37.77;102566.34;20742130;28;20125;-82
2023/04/04 12:36:29;;;;;;;0.77;0.50;;;;;;;18.02;37.66;102554.81;20739212;28;20420;-83
2023/04/04 12:46:40;;;;;;;0.77;0.60;;;;;;;18.00;37.60;102546.78;20732625;28;20042;-86
2023/04/04 12:56:42;;;;;;;0.90;0.75;;;;;;;17.88;37.40;102509.81;20714696;28;20050;-84
2023/04/04 13:06:46;;;;;;;0.80;0.40;;;;;;;17.95;37.28;102513.88;20724136;28;20573;-85
2023/04/04 13:17:03;;;;;;;0.60;0.50;;;;;;;17.88;37.04;102485.59;20754499;28;20057;-85
2023/04/04 13:27:05;;;;;;;0.90;0.50;;;;;;;17.96;37.12;102500.31;20748684;28;20065;-83
2023/04/04 13:37:07;;;;;;;0.63;0.50;;;;;;;17.94;36.84;102483.38;20731722;28;20584;-82
2023/04/04 13:47:08;;;;;;;1.63;1.00;;;;;;;17.88;36.85;102447.88;20706478;28;20042;-83
2023/04/04 13:57:10;;;;;;;0.70;0.60;;;;;;;17.94;36.84;102450.16;20694657;28;20053;-83
2023/04/04 14:07:12;;;;;;;0.82;0.60;;;;;;;17.92;36.74;102441.31;20700855;28;20172;-82
2023/04/04 14:17:14;;;;;;;0.60;0.60;;;;;;;17.89;36.68;102428.88;20730725;28;20510;-83
2023/04/04 14:27:15;;;;;;;1.35;0.85;;;;;;;17.92;36.69;102435.91;20723279;28;20046;-83
2023/04/04 14:37:17;;;;;;;0.57;0.52;;;;;;;17.90;36.81;102413.59;20719468;28;20050;-83
2023/04/04 14:47:19;;;;;;;1.50;0.60;;;;;;;17.88;36.64;102397.53;20717516;28;20045;-84
2023/04/04 14:57:22;;;;;;;0.70;0.60;;;;;;;17.88;36.67;102400.22;20719267;28;20050;-84
2023/04/04 15:07:24;;;;;;;1.42;0.60;;;;;;;17.85;36.69;102386.09;20716241;28;20607;-81
2023/04/04 15:17:26;;;;;;;0.75;0.70;;;;;;;17.86;36.62;102380.59;20728494;28;20042;-83
2023/04/04 15:27:27;;;;;;;0.50;0.43;;;;;;;17.77;36.65;102360.53;20693778;28;20429;-85
2023/04/04 15:37:29;;;;;;;1.63;0.88;;;;;;;17.83;36.81;102365.50;20685151;28;20513;-85
2023/04/04 15:47:31;;;;;;;1.30;1.13;;;;;;;17.83;36.93;102367.31;20694228;28;20085;-88
2023/04/04 15:57:33;;;;;;;0.82;0.60;;;;;;;17.69;36.87;102352.09;20730456;28;20046;-96
2023/04/04 16:07:35;;;;;;;1.52;0.70;;;;;;;17.79;36.84;102357.72;20732652;28;20077;-84
2023/04/04 16:17:37;;;;;;;1.42;0.60;;;;;;;17.78;37.17;102348.78;20713575;28;20516;-88
2023/04/04 16:27:39;;;;;;;1.55;0.75;;;;;;;17.79;37.31;102353.22;20729872;28;20469;-87
2023/04/04 16:37:41;;;;;;;0.70;0.70;;;;;;;17.67;37.45;102327.94;20738975;28;20410;-86
2023/04/04 16:47:42;;;;;;;1.30;0.82;;;;;;;17.75;37.24;102335.53;20729244;28;20076;-89
2023/04/04 16:57:45;;;;;;;0.95;0.55;;;;;;;17.73;37.33;102332.06;20736607;28;20077;-86
2023/04/04 17:07:47;;;;;;;1.00;0.68;;;;;;;17.73;37.57;102324.00;20738416;28;20124;-86
2023/04/04 17:17:48;;;;;;;1.20;0.70;;;;;;;17.73;37.78;102325.81;20731607;28;20048;-86
2023/04/04 17:27:50;;;;;;;0.80;0.70;;;;;;;17.54;37.66;102295.53;20735451;28;20425;-86
2023/04/04 17:37:52;;;;;;;1.25;0.60;;;;;;;17.63;37.81;102312.06;20726254;28;20053;-87
2023/04/04 17:47:54;;;;;;;1.00;0.70;;;;;;;17.58;37.89;102293.53;20739411;28;20057;-86
2023/04/04 17:57:56;;;;;;;0.77;0.60;;;;;;;17.67;38.06;102318.97;20742640;28;20053;-86
2023/04/04 18:07:59;;;;;;;0.95;0.82;;;;;;;17.48;38.08;102287.03;20758660;28;20045;-86
2023/04/04 18:18:01;;;;;;;1.48;0.98;;;;;;;17.60;37.98;102314.97;20747070;28;20121;-86
2023/04/04 18:28:03;;;;;;;0.60;0.60;;;;;;;17.61;38.08;102314.88;20744053;28;20133;-82
2023/04/04 18:38:04;;;;;;;0.50;0.50;;;;;;;17.56;38.28;102310.72;20748230;28;20134;-85
2023/04/04 18:48:07;;;;;;;0.93;0.60;;;;;;;17.53;38.55;102325.28;20747860;28;20044;-85
2023/04/04 18:58:09;;;;;;;1.15;0.70;;;;;;;17.57;38.79;102334.88;20750935;28;20397;-86
2023/04/04 19:08:12;;;;;;;0.65;0.60;;;;;;;17.53;39.05;102327.97;20751207;28;20052;-85
2023/04/04 19:18:14;;;;;;;1.23;0.63;;;;;;;17.56;39.12;102337.66;20748839;28;20042;-85
2023/04/04 19:28:16;;;;;;;1.42;0.85;;;;;;;17.55;39.39;102339.50;20732833;28;20046;-85
2023/04/04 19:38:21;;;;;;;1.52;0.70;;;;;;;17.54;39.37;102346.72;20748764;28;20092;-86
2023/04/04 19:48:39;;;;;;;1.63;1.10;;;;;;;17.53;39.47;102347.66;20747727;28;20128;-85
2023/04/04 19:58:41;;;;;;;1.70;0.80;;;;;;;17.52;39.61;102323.56;20749200;28;20463;-85
2023/04/04 20:08:47;;;;;;;0.80;0.65;;;;;;;17.51;39.71;102338.81;20743420;28;20041;-85
2023/04/04 20:18:49;;;;;;;1.65;0.88;;;;;;;17.49;39.76;102343.44;20719783;28;20046;-85
2023/04/04 20:28:51;;;;;;;1.08;0.98;;;;;;;17.50;39.85;102338.94;20756624;28;20053;-85
2023/04/04 20:38:56;;;;;;;0.90;0.80;;;;;;;17.43;39.89;102330.38;20742938;28;20045;-85
2023/04/04 20:48:58;;;;;;;1.30;0.80;;;;;;;17.47;39.87;102331.06;20743957;28;20120;-85
2023/04/04 20:59:00;;;;;;;0.85;0.60;;;;;;;17.46;40.27;102324.81;20744485;28;20045;-85
2023/04/04 21:09:04;;;;;;;1.23;0.80;;;;;;;17.46;39.98;102329.34;20743594;28;20081;-85
2023/04/04 21:19:07;;;;;;;1.67;1.00;;;;;;;17.45;39.98;102317.69;20754772;28;20056;-85
2023/04/04 21:29:23;;;;;;;0.88;0.77;;;;;;;17.43;40.14;102314.22;20740580;28;20522;-85
2023/04/04 21:39:29;;;;;;;0.80;0.80;;;;;;;17.42;40.13;102320.59;20757218;28;20048;-85
2023/04/04 21:49:32;;;;;;;1.60;0.90;;;;;;;17.43;40.30;102313.34;20755886;28;20053;-85
2023/04/04 21:59:35;;;;;;;2.15;1.10;;;;;;;17.42;40.28;102314.31;20754231;28;20045;-84
2023/04/04 22:09:37;;;;;;;1.40;1.08;;;;;;;17.30;40.24;102286.38;20749620;28;20052;-85
2023/04/04 22:19:41;;;;;;;1.90;1.02;;;;;;;17.40;40.31;102304.50;20752433;28;20046;-85
2023/04/04 22:29:43;;;;;;;1.60;1.15;;;;;;;17.39;40.29;102299.25;20751639;28;20092;-85
2023/04/04 22:39:45;;;;;;;1.80;1.10;;;;;;;17.35;40.26;102284.25;20750271;28;20052;-85
2023/04/04 22:49:49;;;;;;;1.60;1.20;;;;;;;17.39;40.12;102280.41;20748221;28;20048;-85
2023/04/04 22:59:51;;;;;;;0.93;0.80;;;;;;;17.37;40.06;102287.72;20753593;28;20524;-85
2023/04/04 23:09:53;;;;;;;2.45;1.23;;;;;;;17.03;40.01;102214.53;20747993;28;20050;-85
2023/04/04 23:19:55;;;;;;;1.27;0.98;;;;;;;17.32;40.18;102268.31;20748828;28;20050;-85
2023/04/04 23:29:59;;;;;;;1.63;1.13;;;;;;;17.20;39.91;102238.50;20743854;28;20042;-85
2023/04/04 23:40:10;;;;;;;2.38;1.33;;;;;;;17.33;40.08;102260.13;20746534;28;20049;-85
2023/04/04 23:50:12;;;;;;;1.02;0.80;;;;;;;17.19;39.79;102235.94;20753868;28;20458;-85
